Springfield, Illinois
Current Conditions -  °F | °C
As of 10:23 AM on Saturday 25 Oct 2014 (Local Time) from KSPI Reporting Station
Haze Haze  
Wind Chill: 19°   Ceiling: Unl
Heat Index: 19°   Visibility: 3mi
Dew Point: 16°   Wind: 5mph
Humidity: 79%   Direction: 270°W
Pressure: 30.04"   Gusts: NA
Location:  39.8°N, 89.64°W
Report Text: KSPI 251523Z 27004KT 3SM HZ SCT007 19/16 A3004 RMK AO2 T01940156
Loading
Personal Weather Stations






























Interactive Weather Map
Tropical Storm Tracking
New forecast layout! Learn more

10-Day Weather Forecast

Advertisements
Track Severe Weather on mobile